Time;durP1;ratioP1;P1;durP2;ratioP2;P2;SDS_P1;SDS_P2;PMS_P1;PMS_P2;Temp;Humidity;BMP_temperature;BMP_pressure;BME280_temperature;BME280_humidity;BME280_pressure;Samples;Min_cycle;Max_cycle;Signal;HPM_P1;HPM_P2
2023/04/22 00:02:23;;;;;;;;;;;;;;;5.88;68.60;98848.33;131528;1279;5370381;-61
2023/04/22 00:05:26;;;;;;;;;;;;;;;5.89;68.48;98849.84;135598;1278;22508;-62
2023/04/22 00:08:29;;;;;;;;;;;;;;;5.86;68.23;98848.75;135483;1279;22524;-63
2023/04/22 00:11:40;;;;;;;;;;;;;;;5.85;68.61;98848.61;135479;1279;24300;-62
2023/04/22 00:14:42;;;;;;;;;;;;;;;5.81;68.90;98846.90;135673;1270;22513;-62
2023/04/22 00:17:45;;;;;;;;;;;;;;;5.71;68.76;98845.71;135649;1261;22522;-63
2023/04/22 00:20:47;;;;;;;;;;;;;;;5.72;68.51;98842.72;135696;1279;22505;-62
2023/04/22 00:23:50;;;;;;;;;;;;;;;5.80;68.04;98841.38;135694;1279;22519;-62
2023/04/22 00:26:52;;;;;;;;;;;;;;;5.80;68.82;98843.11;135658;1279;22646;-61
2023/04/22 00:29:55;;;;;;;;;;;;;;;5.76;69.25;98844.48;135692;1279;22499;-64
2023/04/22 00:32:58;;;;;;;;;;;;;;;5.77;69.12;98844.98;135668;1279;22528;-63
2023/04/22 00:36:00;;;;;;;;;;;;;;;5.70;68.97;98839.52;135653;1279;22495;-63
2023/04/22 00:39:03;;;;;;;;;;;;;;;5.64;69.70;98840.27;135637;1279;22517;-63
2023/04/22 00:42:05;;;;;;;;;;;;;;;5.56;69.82;98841.80;135673;1279;25325;-62
2023/04/22 00:45:10;;;;;;;;;;;;;;;5.57;69.82;98841.61;135603;1279;22496;-63
2023/04/22 00:48:12;;;;;;;;;;;;;;;5.48;70.42;98841.94;135596;1279;22506;-63
2023/04/22 00:51:15;;;;;;;;;;;;;;;5.47;70.62;98842.86;135622;1279;22645;-64
2023/04/22 00:54:17;;;;;;;;;;;;;;;5.47;70.49;98841.30;135635;1279;25386;-62
2023/04/22 00:57:20;;;;;;;;;;;;;;;5.37;70.80;98844.30;135658;1279;22524;-62
2023/04/22 01:00:25;;;;;;;;;;;;;;;5.33;70.99;98843.59;135638;1279;22533;-62
2023/04/22 01:03:29;;;;;;;;;;;;;;;5.30;71.15;98843.01;135602;1279;22632;-62
2023/04/22 01:06:32;;;;;;;;;;;;;;;5.25;71.48;98842.52;135631;1261;24205;-62
2023/04/22 01:09:34;;;;;;;;;;;;;;;5.21;71.98;98840.23;135606;1270;22513;-62
2023/04/22 01:12:37;;;;;;;;;;;;;;;5.13;71.97;98839.52;135633;1278;22531;-63
2023/04/22 01:15:39;;;;;;;;;;;;;;;4.97;73.02;98843.08;135577;1270;22633;-61
2023/04/22 01:18:42;;;;;;;;;;;;;;;5.06;72.68;98841.17;135635;1261;22496;-62
2023/04/22 01:21:45;;;;;;;;;;;;;;;5.07;72.89;98841.33;135672;1278;22501;-62
2023/04/22 01:24:47;;;;;;;;;;;;;;;5.11;73.22;98839.07;135681;1278;22504;-62
2023/04/22 01:27:50;;;;;;;;;;;;;;;5.00;73.26;98834.97;135672;1278;24397;-62
2023/04/22 01:30:52;;;;;;;;;;;;;;;4.98;73.42;98833.86;135637;1278;22508;-62
2023/04/22 01:33:55;;;;;;;;;;;;;;;5.02;73.77;98829.18;135685;1278;22509;-61
2023/04/22 01:36:57;;;;;;;;;;;;;;;4.97;74.29;98833.19;135644;1261;22504;-63
2023/04/22 01:40:00;;;;;;;;;;;;;;;5.05;73.76;98832.35;135642;1260;25463;-63
2023/04/22 01:43:02;;;;;;;;;;;;;;;5.01;73.85;98837.54;135644;1278;22535;-62
2023/04/22 01:46:05;;;;;;;;;;;;;;;4.87;74.83;98838.40;135674;1278;22511;-62
2023/04/22 01:49:07;;;;;;;;;;;;;;;4.79;74.66;98839.38;135704;1278;22507;-64
2023/04/22 01:52:10;;;;;;;;;;;;;;;4.77;74.59;98836.16;135638;1278;22512;-62
2023/04/22 01:55:13;;;;;;;;;;;;;;;4.75;74.46;98840.27;135671;1278;22517;-62
2023/04/22 01:58:15;;;;;;;;;;;;;;;4.81;73.95;98837.26;135697;1278;25371;-62
2023/04/22 02:01:18;;;;;;;;;;;;;;;4.78;74.17;98838.06;135690;1278;22520;-62
2023/04/22 02:04:20;;;;;;;;;;;;;;;4.71;75.08;98838.15;135684;1278;22504;-62
2023/04/22 02:07:23;;;;;;;;;;;;;;;4.72;74.91;98835.87;135674;1278;22507;-65
2023/04/22 02:10:25;;;;;;;;;;;;;;;4.69;75.33;98834.05;135735;1278;22507;-62
2023/04/22 02:13:28;;;;;;;;;;;;;;;4.67;74.73;98831.02;135705;1261;22558;-63
2023/04/22 02:16:30;;;;;;;;;;;;;;;4.69;75.10;98832.16;135680;1279;24206;-62
2023/04/22 02:19:33;;;;;;;;;;;;;;;4.63;75.78;98831.84;135706;1260;25507;-62
2023/04/22 02:22:36;;;;;;;;;;;;;;;4.62;76.62;98827.05;135713;1279;22592;-63
2023/04/22 02:25:38;;;;;;;;;;;;;;;4.59;77.35;98828.36;135702;1278;22632;-62
2023/04/22 02:28:41;;;;;;;;;;;;;;;4.56;77.55;98826.91;135686;1279;22498;-62
2023/04/22 02:31:44;;;;;;;;;;;;;;;4.60;77.82;98826.24;135729;1278;22504;-63
2023/04/22 02:34:47;;;;;;;;;;;;;;;4.64;77.71;98822.10;135647;1278;22521;-62
2023/04/22 02:37:49;;;;;;;;;;;;;;;4.70;77.12;98823.63;135666;1278;22508;-62
2023/04/22 02:40:52;;;;;;;;;;;;;;;4.70;76.84;98821.73;135701;1260;22500;-63
2023/04/22 02:43:54;;;;;;;;;;;;;;;4.74;76.13;98821.23;135655;1259;22512;-65
2023/04/22 02:46:57;;;;;;;;;;;;;;;4.78;75.79;98824.01;135672;1260;24218;-64
2023/04/22 02:49:59;;;;;;;;;;;;;;;4.85;75.54;98822.56;135715;1278;24388;-62
2023/04/22 02:53:02;;;;;;;;;;;;;;;4.77;76.19;98819.89;135694;1260;23171;-63
2023/04/22 02:56:04;;;;;;;;;;;;;;;4.83;75.86;98818.96;135672;1278;26490;-61
2023/04/22 02:59:07;;;;;;;;;;;;;;;4.80;75.79;98823.41;135692;1262;22637;-61
2023/04/22 03:02:10;;;;;;;;;;;;;;;4.75;76.03;98822.22;135670;1261;22504;-62
2023/04/22 03:05:13;;;;;;;;;;;;;;;4.61;76.08;98824.81;135710;1278;22510;-61
2023/04/22 03:08:15;;;;;;;;;;;;;;;4.53;76.52;98823.37;135725;1278;22518;-63
2023/04/22 03:11:18;;;;;;;;;;;;;;;4.57;75.91;98825.99;135753;1278;22576;-62
2023/04/22 03:14:20;;;;;;;;;;;;;;;4.60;74.89;98827.11;135648;1278;22515;-62
2023/04/22 03:17:24;;;;;;;;;;;;;;;4.43;74.99;98827.19;135733;1278;22515;-62
2023/04/22 03:20:27;;;;;;;;;;;;;;;4.47;74.79;98826.70;135724;1260;22491;-64
2023/04/22 03:23:30;;;;;;;;;;;;;;;4.33;75.34;98828.59;135436;1278;22737;-62
2023/04/22 03:26:32;;;;;;;;;;;;;;;4.32;75.40;98834.33;135713;1278;25387;-62
2023/04/22 03:29:35;;;;;;;;;;;;;;;4.28;75.51;98833.11;135703;1278;22527;-62
2023/04/22 03:32:37;;;;;;;;;;;;;;;4.26;75.49;98838.88;135680;1278;22517;-61
2023/04/22 03:35:40;;;;;;;;;;;;;;;4.36;75.33;98832.48;135718;1278;22511;-63
2023/04/22 03:38:42;;;;;;;;;;;;;;;4.31;74.59;98833.69;135686;1278;22527;-62
2023/04/22 03:41:44;;;;;;;;;;;;;;;4.21;75.32;98836.10;135645;1278;22511;-62
2023/04/22 03:44:47;;;;;;;;;;;;;;;4.12;75.77;98836.95;135651;1278;22504;-61
2023/04/22 03:47:49;;;;;;;;;;;;;;;4.07;75.80;98840.55;135632;1278;22550;-62
2023/04/22 03:50:52;;;;;;;;;;;;;;;4.04;76.07;98838.44;135709;1278;22519;-62
2023/04/22 03:53:55;;;;;;;;;;;;;;;4.02;76.20;98838.33;135719;1278;23532;-61
2023/04/22 03:56:57;;;;;;;;;;;;;;;4.02;76.33;98842.13;135664;1278;22516;-61
2023/04/22 04:00:00;;;;;;;;;;;;;;;4.06;76.33;98844.41;135671;1278;22504;-62
2023/04/22 04:03:02;;;;;;;;;;;;;;;4.04;77.22;98844.83;135733;1278;22510;-62
2023/04/22 04:06:05;;;;;;;;;;;;;;;4.17;76.73;98846.27;135758;1275;22624;-61
2023/04/22 04:09:07;;;;;;;;;;;;;;;4.24;77.15;98848.64;135735;1278;22501;-64
2023/04/22 04:12:09;;;;;;;;;;;;;;;4.38;76.69;98850.58;135758;1278;24227;-62
2023/04/22 04:15:12;;;;;;;;;;;;;;;4.59;75.68;98847.58;135660;1260;24333;-62
2023/04/22 04:18:15;;;;;;;;;;;;;;;4.64;75.70;98848.77;135653;1260;22511;-61
2023/04/22 04:21:17;;;;;;;;;;;;;;;4.78;76.13;98848.42;135702;1278;25392;-62
2023/04/22 04:24:20;;;;;;;;;;;;;;;4.97;75.83;98848.63;135751;1278;22535;-62
2023/04/22 04:27:22;;;;;;;;;;;;;;;5.21;75.23;98845.98;135716;1278;22947;-62
2023/04/22 04:30:25;;;;;;;;;;;;;;;5.37;75.35;98846.55;135736;1278;22520;-63
2023/04/22 04:33:28;;;;;;;;;;;;;;;5.52;75.05;98851.17;135707;1279;22505;-62
2023/04/22 04:36:31;;;;;;;;;;;;;;;5.71;74.78;98849.02;135696;1260;22629;-61
2023/04/22 04:39:34;;;;;;;;;;;;;;;5.89;75.20;98852.64;135730;1278;22542;-62
2023/04/22 04:42:37;;;;;;;;;;;;;;;6.20;75.44;98851.03;135681;1278;22627;-62
2023/04/22 04:45:45;;;;;;;;;;;;;;;6.49;74.52;98854.80;135702;1278;22523;-62
2023/04/22 04:48:49;;;;;;;;;;;;;;;6.73;73.43;98852.89;135762;1260;24198;-63
2023/04/22 04:51:52;;;;;;;;;;;;;;;6.95;74.33;98855.21;135692;1260;22517;-64
2023/04/22 04:54:54;;;;;;;;;;;;;;;7.37;73.83;98852.59;135475;1278;22521;-62
2023/04/22 04:57:56;;;;;;;;;;;;;;;7.71;73.46;98853.38;135748;1260;22519;-62
2023/04/22 05:00:59;;;;;;;;;;;;;;;7.97;73.96;98849.86;135727;1278;25425;-63
2023/04/22 05:04:01;;;;;;;;;;;;;;;8.34;73.20;98848.70;135733;1278;22520;-62
2023/04/22 05:07:04;;;;;;;;;;;;;;;8.59;73.06;98846.41;135736;1279;22508;-62
2023/04/22 05:10:06;;;;;;;;;;;;;;;8.66;73.54;98846.00;135722;1275;22500;-63
2023/04/22 05:13:09;;;;;;;;;;;;;;;8.87;73.68;98841.27;135521;1278;25593;-63
2023/04/22 05:16:12;;;;;;;;;;;;;;;9.16;73.07;98841.80;135699;1278;22505;-63
2023/04/22 05:19:15;;;;;;;;;;;;;;;9.40;72.61;98838.70;135713;1278;22529;-65
2023/04/22 05:22:17;;;;;;;;;;;;;;;9.57;72.28;98838.80;135755;1278;22510;-65
2023/04/22 05:25:20;;;;;;;;;;;;;;;9.72;72.35;98838.80;135724;1278;24258;-62
2023/04/22 05:28:23;;;;;;;;;;;;;;;9.87;73.32;98841.27;135736;1279;22549;-62
2023/04/22 05:31:25;;;;;;;;;;;;;;;10.02;73.83;98842.67;135717;1278;24247;-63
2023/04/22 05:34:28;;;;;;;;;;;;;;;10.22;73.87;98842.43;135719;1278;24216;-63
2023/04/22 05:37:30;;;;;;;;;;;;;;;10.51;72.38;98846.67;135733;1279;22537;-62
2023/04/22 05:40:33;;;;;;;;;;;;;;;10.78;70.51;98850.27;135768;1279;22475;-63
2023/04/22 05:43:35;;;;;;;;;;;;;;;11.11;69.89;98853.30;135712;1257;22965;-61
2023/04/22 05:46:38;;;;;;;;;;;;;;;11.46;68.74;98849.92;135735;1278;22500;-63
2023/04/22 05:49:44;;;;;;;;;;;;;;;11.91;67.63;98849.08;135757;1278;22533;-63
2023/04/22 05:52:47;;;;;;;;;;;;;;;12.20;66.80;98847.52;135759;1278;22530;-63
2023/04/22 05:55:50;;;;;;;;;;;;;;;12.41;66.03;98845.98;135535;1278;25239;-63
2023/04/22 05:58:52;;;;;;;;;;;;;;;12.61;65.50;98845.96;135765;1261;22596;-62
2023/04/22 06:01:55;;;;;;;;;;;;;;;12.86;64.75;98850.38;135693;1278;22537;-63
2023/04/22 06:04:58;;;;;;;;;;;;;;;13.19;63.38;98848.95;135770;1278;22501;-63
2023/04/22 06:08:01;;;;;;;;;;;;;;;13.48;62.85;98846.55;135632;1278;22512;-63
2023/04/22 06:11:03;;;;;;;;;;;;;;;13.80;63.02;98846.02;135714;1278;22517;-63
2023/04/22 06:14:07;;;;;;;;;;;;;;;14.03;61.73;98845.36;135697;1278;22677;-62
2023/04/22 06:17:10;;;;;;;;;;;;;;;14.22;61.71;98844.61;135620;1278;22504;-62
2023/04/22 06:20:13;;;;;;;;;;;;;;;14.48;61.77;98846.39;135627;1278;22503;-63
2023/04/22 06:23:16;;;;;;;;;;;;;;;14.74;61.43;98845.23;135684;1278;22507;-62
2023/04/22 06:26:19;;;;;;;;;;;;;;;15.03;60.60;98842.46;135754;1278;22503;-63
2023/04/22 06:29:22;;;;;;;;;;;;;;;15.32;60.06;98843.89;135768;1278;22511;-63
2023/04/22 06:32:25;;;;;;;;;;;;;;;15.67;60.04;98843.14;135717;1278;22494;-63
2023/04/22 06:35:28;;;;;;;;;;;;;;;15.93;59.78;98837.88;135663;1278;22516;-62
2023/04/22 06:38:30;;;;;;;;;;;;;;;16.31;58.90;98839.86;135727;1278;25229;-62
2023/04/22 06:41:33;;;;;;;;;;;;;;;16.58;59.18;98838.29;135768;1278;22510;-63
2023/04/22 06:44:37;;;;;;;;;;;;;;;16.89;58.29;98837.58;135739;1278;22570;-63
2023/04/22 06:47:40;;;;;;;;;;;;;;;17.18;56.31;98837.52;135722;1278;22500;-62
2023/04/22 06:50:43;;;;;;;;;;;;;;;17.42;56.31;98837.02;135766;1278;22596;-64
2023/04/22 06:53:47;;;;;;;;;;;;;;;17.77;55.86;98833.36;135733;1278;22544;-63
2023/04/22 06:56:50;;;;;;;;;;;;;;;17.81;54.95;98831.79;135774;1260;22631;-63
2023/04/22 06:59:53;;;;;;;;;;;;;;;18.08;55.24;98830.91;135745;1278;22508;-63
2023/04/22 07:02:56;;;;;;;;;;;;;;;18.33;52.62;98832.33;135752;1278;22497;-63
2023/04/22 07:05:59;;;;;;;;;;;;;;;18.56;52.06;98832.20;135696;1278;22510;-63
2023/04/22 07:09:02;;;;;;;;;;;;;;;18.81;51.54;98831.89;135737;1278;22503;-63
2023/04/22 07:12:06;;;;;;;;;;;;;;;18.90;49.09;98833.21;135741;1278;25320;-62
2023/04/22 07:15:08;;;;;;;;;;;;;;;18.97;48.69;98836.46;135736;1278;22501;-63
2023/04/22 07:18:12;;;;;;;;;;;;;;;19.29;47.77;98840.19;135778;1278;22613;-64
2023/04/22 07:21:15;;;;;;;;;;;;;;;19.36;45.95;98838.20;135749;1256;22642;-63
2023/04/22 07:24:19;;;;;;;;;;;;;;;19.47;45.74;98841.58;135749;1260;22506;-63
2023/04/22 07:27:21;;;;;;;;;;;;;;;19.66;44.49;98841.11;135762;1261;22550;-64
2023/04/22 07:30:28;;;;;;;;;;;;;;;19.94;44.99;98840.41;135771;1278;22516;-64
2023/04/22 07:33:31;;;;;;;;;;;;;;;20.17;44.45;98836.62;135749;1278;22545;-64
2023/04/22 07:36:34;;;;;;;;;;;;;;;20.46;44.55;98831.92;135766;1259;22633;-64
2023/04/22 07:39:36;;;;;;;;;;;;;;;20.81;44.32;98831.42;135751;1278;26425;-63
2023/04/22 07:42:39;;;;;;;;;;;;;;;21.16;44.02;98828.09;135741;1278;25262;-63
2023/04/22 07:45:42;;;;;;;;;;;;;;;21.38;42.44;98831.01;135778;1278;25243;-62
2023/04/22 07:48:46;;;;;;;;;;;;;;;21.67;42.58;98827.98;135727;1278;22502;-64
2023/04/22 07:51:49;;;;;;;;;;;;;;;21.95;42.65;98825.01;135745;1278;22527;-64
2023/04/22 07:54:53;;;;;;;;;;;;;;;22.06;40.48;98824.90;135740;1278;23018;-64
2023/04/22 07:57:56;;;;;;;;;;;;;;;22.08;39.43;98824.27;135735;1278;22504;-64
2023/04/22 08:01:08;;;;;;;;;;;;;;;22.13;39.76;98821.42;135744;1278;22522;-63
2023/04/22 08:04:18;;;;;;;;;;;;;;;22.28;37.24;98824.41;135757;1261;22504;-65
2023/04/22 08:07:21;;;;;;;;;;;;;;;22.24;39.36;98823.73;135734;1260;22512;-63
2023/04/22 08:10:24;;;;;;;;;;;;;;;22.61;40.06;98820.80;135701;1278;22516;-64
2023/04/22 08:13:26;;;;;;;;;;;;;;;22.74;37.41;98820.44;135531;1278;24272;-64
2023/04/22 08:16:29;;;;;;;;;;;;;;;22.76;36.60;98818.36;135545;1278;22490;-64
2023/04/22 08:19:32;;;;;;;;;;;;;;;22.87;35.86;98819.13;135772;1278;22504;-63
2023/04/22 08:22:35;;;;;;;;;;;;;;;23.11;36.69;98820.08;135596;1278;22497;-63
2023/04/22 08:25:45;;;;;;;;;;;;;;;23.32;35.89;98820.35;135699;1278;22500;-66
2023/04/22 08:28:49;;;;;;;;;;;;;;;23.38;34.36;98820.02;135782;1278;22508;-66
2023/04/22 08:31:52;;;;;;;;;;;;;;;23.38;34.06;98823.05;135763;1278;25331;-64
2023/04/22 08:34:55;;;;;;;;;;;;;;;23.58;35.76;98819.65;135731;1278;22516;-65
2023/04/22 08:37:59;;;;;;;;;;;;;;;23.74;35.35;98819.15;135740;1278;22504;-65
2023/04/22 08:41:02;;;;;;;;;;;;;;;23.97;35.66;98811.88;135752;1278;22526;-63
2023/04/22 08:44:06;;;;;;;;;;;;;;;24.21;35.33;98811.33;135752;1278;25259;-64
2023/04/22 08:47:12;;;;;;;;;;;;;;;24.21;32.93;98809.75;135758;1278;22517;-63
2023/04/22 08:50:15;;;;;;;;;;;;;;;24.07;31.72;98816.36;135705;1279;22503;-63
2023/04/22 08:53:18;;;;;;;;;;;;;;;23.65;30.00;98819.77;135735;1278;25341;-64
2023/04/22 08:56:21;;;;;;;;;;;;;;;23.34;30.83;98813.32;135645;1278;26511;-63
2023/04/22 08:59:28;;;;;;;;;;;;;;;23.22;31.17;98811.48;135675;1278;22517;-65
2023/04/22 09:02:31;;;;;;;;;;;;;;;23.22;30.47;98808.80;135624;1278;22505;-63
2023/04/22 09:05:36;;;;;;;;;;;;;;;22.97;31.42;98806.95;135684;1278;22659;-63
2023/04/22 09:08:38;;;;;;;;;;;;;;;22.91;30.61;98801.99;135700;1278;24236;-65
2023/04/22 09:11:41;;;;;;;;;;;;;;;22.93;30.92;98795.10;135762;1260;24189;-65
2023/04/22 09:14:44;;;;;;;;;;;;;;;23.09;31.03;98800.83;135531;1278;22500;-66
2023/04/22 09:17:47;;;;;;;;;;;;;;;23.29;31.14;98796.29;135748;1260;23681;-66
2023/04/22 09:20:52;;;;;;;;;;;;;;;23.24;30.41;98794.10;135653;1278;22508;-63
2023/04/22 09:23:55;;;;;;;;;;;;;;;23.25;32.20;98793.17;135712;1278;25492;-64
2023/04/22 09:26:58;;;;;;;;;;;;;;;23.72;31.33;98792.75;135673;1278;22512;-65
2023/04/22 09:30:01;;;;;;;;;;;;;;;24.02;32.00;98787.11;135736;1278;24394;-66
2023/04/22 09:33:07;;;;;;;;;;;;;;;24.27;30.77;98784.02;135771;1279;22507;-66
2023/04/22 09:36:10;;;;;;;;;;;;;;;24.20;29.61;98786.45;135746;1278;24277;-64
2023/04/22 09:39:13;;;;;;;;;;;;;;;23.93;29.66;98785.38;135762;1275;22528;-66
2023/04/22 09:42:18;;;;;;;;;;;;;;;23.61;28.89;98787.29;135695;1278;24329;-63
2023/04/22 09:45:21;;;;;;;;;;;;;;;23.65;29.39;98781.27;135759;1278;22530;-63
2023/04/22 09:48:24;;;;;;;;;;;;;;;23.81;29.52;98778.33;135769;1278;22507;-64
2023/04/22 09:51:27;;;;;;;;;;;;;;;24.12;30.90;98772.95;135736;1279;25705;-65
2023/04/22 09:54:30;;;;;;;;;;;;;;;24.48;30.59;98772.39;135769;1278;25337;-67
2023/04/22 09:57:33;;;;;;;;;;;;;;;24.70;29.23;98766.56;135728;1278;22619;-64
2023/04/22 10:00:37;;;;;;;;;;;;;;;24.75;28.93;98761.27;135756;1278;23640;-66
2023/04/22 10:03:40;;;;;;;;;;;;;;;25.00;29.07;98758.85;135742;1278;22518;-67
2023/04/22 10:06:43;;;;;;;;;;;;;;;24.72;27.73;98766.83;135755;1278;22607;-64
2023/04/22 10:09:47;;;;;;;;;;;;;;;24.67;28.70;98765.14;135720;1279;22519;-64
2023/04/22 10:12:50;;;;;;;;;;;;;;;24.81;28.13;98757.21;135734;1278;22540;-64
2023/04/22 10:15:53;;;;;;;;;;;;;;;24.82;28.02;98757.10;135750;1279;22500;-64
2023/04/22 10:18:55;;;;;;;;;;;;;;;24.75;28.97;98754.67;135759;1278;22510;-66
2023/04/22 10:22:02;;;;;;;;;;;;;;;25.12;28.53;98747.48;135735;1278;25108;-67
2023/04/22 10:25:05;;;;;;;;;;;;;;;25.26;28.55;98748.48;135723;1278;22508;-66
2023/04/22 10:28:09;;;;;;;;;;;;;;;25.14;27.98;98750.64;135791;1279;22494;-67
2023/04/22 10:31:12;;;;;;;;;;;;;;;25.08;28.09;98745.48;135734;1278;22530;-66
2023/04/22 10:34:18;;;;;;;;;;;;;;;25.15;27.42;98745.73;135719;1278;22506;-64
2023/04/22 10:37:21;;;;;;;;;;;;;;;25.21;27.74;98737.84;135731;1278;22518;-63
2023/04/22 10:40:24;;;;;;;;;;;;;;;25.11;27.36;98735.23;135726;1278;22515;-65
2023/04/22 10:43:27;;;;;;;;;;;;;;;25.19;27.81;98729.72;135749;1278;22697;-65
2023/04/22 10:46:30;;;;;;;;;;;;;;;25.34;27.11;98725.72;135725;1278;22504;-68
2023/04/22 10:49:34;;;;;;;;;;;;;;;25.68;27.99;98725.54;135760;1278;22510;-66
2023/04/22 10:52:37;;;;;;;;;;;;;;;26.11;27.80;98725.21;135751;1278;22465;-64
2023/04/22 10:55:40;;;;;;;;;;;;;;;26.36;27.86;98718.81;135695;1279;22590;-65
2023/04/22 10:58:43;;;;;;;;;;;;;;;26.63;28.14;98720.56;135730;1278;23863;-64
2023/04/22 11:01:46;;;;;;;;;;;;;;;26.77;27.56;98717.95;135755;1278;22500;-65
2023/04/22 11:04:51;;;;;;;;;;;;;;;26.89;28.01;98719.70;135753;1278;22527;-65
2023/04/22 11:07:54;;;;;;;;;;;;;;;27.14;28.27;98714.80;135742;1278;22502;-64
2023/04/22 11:10:57;;;;;;;;;;;;;;;27.42;28.41;98715.24;135755;1278;22504;-64
2023/04/22 11:14:00;;;;;;;;;;;;;;;27.74;28.14;98715.80;135687;1278;22530;-66
2023/04/22 11:17:04;;;;;;;;;;;;;;;27.49;25.63;98717.27;135732;1278;22520;-64
2023/04/22 11:20:07;;;;;;;;;;;;;;;27.17;26.72;98714.98;135730;1278;22508;-64
2023/04/22 11:23:13;;;;;;;;;;;;;;;27.36;27.25;98714.15;135716;1278;22500;-66
2023/04/22 11:26:16;;;;;;;;;;;;;;;27.42;25.80;98713.71;135699;1278;22559;-64
2023/04/22 11:29:19;;;;;;;;;;;;;;;27.11;26.11;98711.23;135709;1278;24440;-64
2023/04/22 11:32:23;;;;;;;;;;;;;;;26.84;24.43;98707.40;135696;1278;22511;-63
2023/04/22 11:35:27;;;;;;;;;;;;;;;26.45;24.80;98704.58;135722;1278;22510;-64
2023/04/22 11:38:29;;;;;;;;;;;;;;;26.61;24.62;98700.66;135655;1278;22494;-64
2023/04/22 11:41:32;;;;;;;;;;;;;;;26.56;24.09;98704.92;135646;1278;22538;-64
2023/04/22 11:44:34;;;;;;;;;;;;;;;26.40;23.77;98702.65;135632;1278;23473;-64
2023/04/22 11:47:37;;;;;;;;;;;;;;;26.48;24.60;98701.58;135614;1278;22514;-64
2023/04/22 11:50:40;;;;;;;;;;;;;;;26.65;24.71;98699.85;135626;1279;22503;-62
2023/04/22 11:53:47;;;;;;;;;;;;;;;26.86;23.91;98701.59;135698;1260;22510;-63
2023/04/22 11:56:50;;;;;;;;;;;;;;;26.94;24.41;98700.30;135697;1278;22519;-66
2023/04/22 11:59:52;;;;;;;;;;;;;;;27.17;24.64;98699.31;135713;1278;22517;-66
2023/04/22 12:02:56;;;;;;;;;;;;;;;27.19;23.96;98699.23;131341;1280;5379563;-64
2023/04/22 12:05:58;;;;;;;;;;;;;;;27.49;25.33;98696.36;135653;1279;22540;-63
2023/04/22 12:09:01;;;;;;;;;;;;;;;27.96;26.43;98691.79;135676;1278;22500;-65
2023/04/22 12:12:04;;;;;;;;;;;;;;;28.32;26.28;98690.65;135568;1262;22580;-64
2023/04/22 12:15:06;;;;;;;;;;;;;;;28.57;26.37;98692.23;135697;1278;22507;-64
2023/04/22 12:18:09;;;;;;;;;;;;;;;28.76;25.93;98689.69;135664;1278;22499;-64
2023/04/22 12:21:12;;;;;;;;;;;;;;;28.94;26.31;98689.14;135659;1278;22533;-66
2023/04/22 12:24:19;;;;;;;;;;;;;;;28.91;25.92;98685.00;135674;1278;22531;-64
2023/04/22 12:27:21;;;;;;;;;;;;;;;29.00;25.71;98685.95;135561;1278;22518;-64
2023/04/22 12:30:24;;;;;;;;;;;;;;;29.23;26.47;98682.54;135694;1278;22524;-64
2023/04/22 12:33:27;;;;;;;;;;;;;;;29.15;25.03;98678.05;135665;1278;26478;-65
2023/04/22 12:36:31;;;;;;;;;;;;;;;28.87;24.70;98676.85;135642;1278;22511;-64
2023/04/22 12:39:33;;;;;;;;;;;;;;;28.52;24.68;98673.21;135698;1278;25379;-63
2023/04/22 12:42:36;;;;;;;;;;;;;;;28.36;25.98;98671.48;135646;1278;22535;-63
2023/04/22 12:45:39;;;;;;;;;;;;;;;28.53;25.48;98669.14;135628;1278;22572;-65
2023/04/22 12:48:42;;;;;;;;;;;;;;;28.70;25.95;98665.64;135698;1260;22558;-67
2023/04/22 12:51:45;;;;;;;;;;;;;;;29.04;26.10;98666.27;135675;1261;22507;-66
2023/04/22 12:54:48;;;;;;;;;;;;;;;29.35;25.58;98665.35;135700;1278;22514;-65
2023/04/22 12:57:51;;;;;;;;;;;;;;;29.46;25.46;98660.23;135682;1278;22557;-64
2023/04/22 13:00:54;;;;;;;;;;;;;;;29.54;24.46;98654.14;135671;1278;22505;-65
2023/04/22 13:03:57;;;;;;;;;;;;;;;29.37;24.89;98648.88;135682;1278;22624;-64
2023/04/22 13:07:01;;;;;;;;;;;;;;;29.20;24.81;98645.13;135679;1278;22512;-65
2023/04/22 13:10:04;;;;;;;;;;;;;;;28.69;23.70;98640.98;135722;1278;26523;-64
2023/04/22 13:13:07;;;;;;;;;;;;;;;27.70;24.02;98635.52;135653;1278;22511;-63
2023/04/22 13:16:10;;;;;;;;;;;;;;;27.75;25.50;98638.76;135574;1278;22503;-63
2023/04/22 13:19:13;;;;;;;;;;;;;;;28.23;25.13;98635.80;135613;1264;22617;-65
2023/04/22 13:22:16;;;;;;;;;;;;;;;28.55;24.94;98634.70;135692;1278;22516;-64
2023/04/22 13:25:19;;;;;;;;;;;;;;;28.91;24.84;98633.27;135630;1278;23269;-64
2023/04/22 13:28:22;;;;;;;;;;;;;;;29.24;25.13;98624.99;135614;1278;22536;-65
2023/04/22 13:31:24;;;;;;;;;;;;;;;29.59;25.44;98625.38;135652;1279;22508;-64
2023/04/22 13:34:27;;;;;;;;;;;;;;;29.76;24.94;98621.84;135537;1260;24360;-63
2023/04/22 13:37:30;;;;;;;;;;;;;;;29.95;25.45;98625.05;135685;1278;22533;-63
2023/04/22 13:40:35;;;;;;;;;;;;;;;30.17;24.99;98621.64;135672;1279;22504;-63
2023/04/22 13:43:37;;;;;;;;;;;;;;;30.23;24.70;98624.45;135695;1264;22526;-64
2023/04/22 13:46:40;;;;;;;;;;;;;;;30.21;24.30;98625.64;135700;1278;22510;-63
2023/04/22 13:49:42;;;;;;;;;;;;;;;30.12;23.81;98624.58;135679;1278;22521;-65
2023/04/22 13:52:45;;;;;;;;;;;;;;;29.71;23.71;98622.98;135696;1279;22641;-66
2023/04/22 13:55:48;;;;;;;;;;;;;;;29.12;22.71;98622.50;135662;1279;22517;-64
2023/04/22 13:58:51;;;;;;;;;;;;;;;28.54;23.70;98620.91;135696;1278;22506;-64
2023/04/22 14:01:53;;;;;;;;;;;;;;;28.31;24.90;98620.09;135684;1279;22516;-66
2023/04/22 14:04:57;;;;;;;;;;;;;;;28.47;25.15;98616.88;135715;1278;22511;-65
2023/04/22 14:08:00;;;;;;;;;;;;;;;28.89;25.00;98616.55;135685;1279;22542;-67
2023/04/22 14:11:03;;;;;;;;;;;;;;;29.14;24.74;98614.50;135708;1262;22612;-65
2023/04/22 14:14:05;;;;;;;;;;;;;;;29.29;24.67;98614.20;135652;1278;22493;-65
2023/04/22 14:17:08;;;;;;;;;;;;;;;28.91;23.22;98617.41;135660;1278;22515;-64
2023/04/22 14:20:11;;;;;;;;;;;;;;;28.90;23.68;98614.50;135701;1262;22491;-64
2023/04/22 14:23:13;;;;;;;;;;;;;;;28.84;23.56;98611.44;135712;1279;22507;-64
2023/04/22 14:26:15;;;;;;;;;;;;;;;28.70;24.31;98608.06;135645;1279;22519;-64
2023/04/22 14:29:18;;;;;;;;;;;;;;;28.83;23.33;98605.20;135676;1279;22500;-63
2023/04/22 14:32:20;;;;;;;;;;;;;;;28.12;23.22;98612.92;135629;1279;22622;-64
2023/04/22 14:35:23;;;;;;;;;;;;;;;27.49;24.13;98616.69;135594;1262;22516;-63
2023/04/22 14:38:26;;;;;;;;;;;;;;;27.71;25.22;98611.61;135599;1279;22510;-63
2023/04/22 14:41:28;;;;;;;;;;;;;;;27.88;24.60;98606.10;135439;1279;22508;-63
2023/04/22 14:44:31;;;;;;;;;;;;;;;27.08;23.55;98612.42;135634;1262;22508;-63
2023/04/22 14:47:33;;;;;;;;;;;;;;;26.28;24.23;98617.29;135698;1279;22539;-64
2023/04/22 14:50:38;;;;;;;;;;;;;;;25.52;24.39;98606.97;135589;1273;23150;-64
2023/04/22 14:53:42;;;;;;;;;;;;;;;25.04;24.99;98606.19;135491;1278;23113;-64
2023/04/22 14:56:45;;;;;;;;;;;;;;;24.76;26.12;98601.33;135629;1278;22516;-64
2023/04/22 14:59:48;;;;;;;;;;;;;;;24.57;25.35;98599.13;135592;1279;22519;-64
2023/04/22 15:02:50;;;;;;;;;;;;;;;24.36;27.45;98596.23;135495;1278;22514;-64
2023/04/22 15:05:53;;;;;;;;;;;;;;;24.63;27.41;98594.70;135654;1260;24198;-66
2023/04/22 15:08:55;;;;;;;;;;;;;;;25.36;27.54;98596.02;135633;1279;22515;-66
2023/04/22 15:11:58;;;;;;;;;;;;;;;26.12;26.97;98594.04;135530;1262;22553;-65
2023/04/22 15:15:01;;;;;;;;;;;;;;;27.01;25.67;98590.21;135643;1279;22602;-65
2023/04/22 15:18:07;;;;;;;;;;;;;;;28.20;24.99;98585.22;135678;1278;22527;-67
2023/04/22 15:21:10;;;;;;;;;;;;;;;29.84;24.08;98581.41;135657;1278;22516;-64
2023/04/22 15:24:13;;;;;;;;;;;;;;;31.48;24.00;98581.77;135698;1278;22502;-70
2023/04/22 15:27:18;;;;;;;;;;;;;;;33.12;23.22;98576.33;135643;1263;22500;-69
2023/04/22 15:30:22;;;;;;;;;;;;;;;33.96;22.58;98574.89;135603;1279;22553;-66
2023/04/22 15:33:24;;;;;;;;;;;;;;;34.03;21.90;98575.14;135606;1279;22511;-66
2023/04/22 15:36:28;;;;;;;;;;;;;;;34.18;21.36;98580.95;135724;1279;22512;-66
2023/04/22 15:39:30;;;;;;;;;;;;;;;33.15;20.80;98578.86;135664;1278;22675;-65
2023/04/22 15:42:33;;;;;;;;;;;;;;;32.51;20.82;98579.87;135633;1278;22508;-66
2023/04/22 15:45:36;;;;;;;;;;;;;;;33.88;21.20;98577.91;135687;1275;22534;-66